AAL2439 KDFW-KOKC
Flight info
| Callsign | AAL2439 |
|---|---|
| Flight time | 0h 41m |
| Altitude | 20000 |
| Route | BLECO8 ZEMMA TSDEL3 |
| Aircraft | B738/M-SDE2E3FGHIRWXY/LB1 |
Departure
| Time | 2026-05-05 01:15 |
|---|---|
| Airport | Dallas Fort Worth International Airport (KDFW) |
Arrival
| Time | 2026-05-05 01:57 |
|---|---|
| Airport | OKC Will Rogers World Airport (KOKC) |
| Time | Latitude | Longitude | Altitude | Speed | Heading |
|---|---|---|---|---|---|
| 2026-05-05 00:57 | 32.89479 | -97.03658 | 578 ft | 0 kts | 324° |
| 2026-05-05 01:04 | 32.89470 | -97.03650 | 578 ft | 2 kts | 324° |
| 2026-05-05 01:05 | 32.89458 | -97.03640 | 578 ft | 2 kts | 324° |
| 2026-05-05 01:05 | 32.89445 | -97.03629 | 578 ft | 2 kts | 344° |
| 2026-05-05 01:05 | 32.89430 | -97.03631 | 577 ft | 2 kts | 26° |
| 2026-05-05 01:05 | 32.89419 | -97.03642 | 577 ft | 2 kts | 65° |
| 2026-05-05 01:06 | 32.89417 | -97.03653 | 577 ft | 1 kts | 88° |
| 2026-05-05 01:06 | 32.89417 | -97.03661 | 577 ft | 0 kts | 90° |
| 2026-05-05 01:07 | 32.89417 | -97.03656 | 577 ft | 3 kts | 89° |
| 2026-05-05 01:08 | 32.89433 | -97.03594 | 577 ft | 7 kts | 48° |
| 2026-05-05 01:08 | 32.89484 | -97.03561 | 578 ft | 9 kts | 25° |
| 2026-05-05 01:08 | 32.89540 | -97.03507 | 579 ft | 11 kts | 43° |
| 2026-05-05 01:08 | 32.89607 | -97.03444 | 578 ft | 11 kts | 54° |
| 2026-05-05 01:09 | 32.89616 | -97.03364 | 578 ft | 8 kts | 92° |
| 2026-05-05 01:09 | 32.89614 | -97.03301 | 578 ft | 6 kts | 93° |
| 2026-05-05 01:09 | 32.89613 | -97.03248 | 577 ft | 6 kts | 86° |
| 2026-05-05 01:09 | 32.89667 | -97.03188 | 576 ft | 21 kts | 23° |
| 2026-05-05 01:10 | 32.89782 | -97.03188 | 576 ft | 16 kts | 355° |
| 2026-05-05 01:10 | 32.89899 | -97.03194 | 577 ft | 16 kts | 359° |
| 2026-05-05 01:10 | 32.90016 | -97.03194 | 577 ft | 16 kts | 360° |
| 2026-05-05 01:10 | 32.90129 | -97.03194 | 579 ft | 15 kts | 0° |
| 2026-05-05 01:11 | 32.90234 | -97.03192 | 580 ft | 15 kts | 0° |
| 2026-05-05 01:11 | 32.90340 | -97.03191 | 580 ft | 15 kts | 0° |
| 2026-05-05 01:11 | 32.90448 | -97.03191 | 580 ft | 15 kts | 360° |
| 2026-05-05 01:11 | 32.90556 | -97.03191 | 581 ft | 15 kts | 0° |
| 2026-05-05 01:12 | 32.90657 | -97.03190 | 583 ft | 13 kts | 0° |
| 2026-05-05 01:12 | 32.90752 | -97.03188 | 582 ft | 14 kts | 0° |
| 2026-05-05 01:12 | 32.90852 | -97.03189 | 582 ft | 14 kts | 359° |
| 2026-05-05 01:12 | 32.90959 | -97.03190 | 580 ft | 16 kts | 360° |
| 2026-05-05 01:13 | 32.91075 | -97.03190 | 579 ft | 17 kts | 360° |
| 2026-05-05 01:13 | 32.91195 | -97.03190 | 579 ft | 17 kts | 1° |
| 2026-05-05 01:13 | 32.91322 | -97.03185 | 576 ft | 19 kts | 2° |
| 2026-05-05 01:13 | 32.91465 | -97.03187 | 574 ft | 21 kts | 359° |
| 2026-05-05 01:14 | 32.91560 | -97.03146 | 572 ft | 10 kts | 83° |
| 2026-05-05 01:14 | 32.91561 | -97.03121 | 572 ft | 0 kts | 91° |
| 2026-05-05 01:14 | 32.91560 | -97.03088 | 571 ft | 16 kts | 91° |
| 2026-05-05 01:14 | 32.91524 | -97.02990 | 569 ft | 0 kts | 176° |
| 2026-05-05 01:15 | 32.91338 | -97.02983 | 572 ft | 76 kts | 178° |
| 2026-05-05 01:15 | 32.90480 | -97.02974 | 625 ft | 163 kts | 178° |
| 2026-05-05 01:15 | 32.89353 | -97.02953 | 1779 ft | 170 kts | 180° |
| 2026-05-05 01:16 | 32.88181 | -97.02956 | 2856 ft | 180 kts | 183° |
| 2026-05-05 01:16 | 32.86868 | -97.02951 | 3797 ft | 200 kts | 183° |
| 2026-05-05 01:16 | 32.85407 | -97.02894 | 4681 ft | 224 kts | 179° |
| 2026-05-05 01:16 | 32.83823 | -97.02410 | 5558 ft | 252 kts | 165° |
| 2026-05-05 01:17 | 32.82169 | -97.01564 | 6502 ft | 271 kts | 161° |
| 2026-05-05 01:17 | 32.80437 | -97.00624 | 7622 ft | 280 kts | 159° |
| 2026-05-05 01:17 | 32.78777 | -96.99383 | 8761 ft | 293 kts | 145° |
| 2026-05-05 01:17 | 32.77454 | -96.97472 | 9803 ft | 311 kts | 120° |
| 2026-05-05 01:18 | 32.76609 | -96.95103 | 10904 ft | 318 kts | 108° |
| 2026-05-05 01:18 | 32.76308 | -96.92532 | 11958 ft | 323 kts | 87° |
| 2026-05-05 01:18 | 32.76574 | -96.89841 | 12778 ft | 334 kts | 71° |
| 2026-05-05 01:18 | 32.77499 | -96.87310 | 13582 ft | 342 kts | 54° |
| 2026-05-05 01:19 | 32.78984 | -96.85026 | 14291 ft | 353 kts | 40° |
| 2026-05-05 01:19 | 32.80849 | -96.83061 | 15022 ft | 364 kts | 32° |
| 2026-05-05 01:19 | 32.83038 | -96.81467 | 15652 ft | 372 kts | 17° |
| 2026-05-05 01:19 | 32.85554 | -96.80727 | 16324 ft | 376 kts | 359° |
| 2026-05-05 01:20 | 32.88147 | -96.80655 | 17198 ft | 380 kts | 354° |
| 2026-05-05 01:20 | 32.90810 | -96.80720 | 18161 ft | 384 kts | 353° |
| 2026-05-05 01:20 | 32.93465 | -96.80800 | 19114 ft | 387 kts | 352° |
| 2026-05-05 01:20 | 32.96158 | -96.80974 | 19632 ft | 387 kts | 347° |
| 2026-05-05 01:21 | 32.98796 | -96.81575 | 19787 ft | 384 kts | 339° |
| 2026-05-05 01:21 | 33.01299 | -96.82585 | 19789 ft | 377 kts | 332° |
| 2026-05-05 01:21 | 33.03681 | -96.83890 | 19789 ft | 373 kts | 328° |
| 2026-05-05 01:21 | 33.05975 | -96.85324 | 19784 ft | 371 kts | 326° |
| 2026-05-05 01:22 | 33.08223 | -96.86806 | 19779 ft | 374 kts | 326° |
| 2026-05-05 01:22 | 33.10481 | -96.88313 | 19776 ft | 371 kts | 326° |
| 2026-05-05 01:22 | 33.12738 | -96.89813 | 19781 ft | 370 kts | 326° |
| 2026-05-05 01:22 | 33.15002 | -96.91305 | 19782 ft | 372 kts | 326° |
| 2026-05-05 01:23 | 33.17272 | -96.92795 | 19773 ft | 371 kts | 326° |
| 2026-05-05 01:23 | 33.19552 | -96.94286 | 19771 ft | 373 kts | 327° |
| 2026-05-05 01:23 | 33.21831 | -96.95770 | 19769 ft | 372 kts | 327° |
| 2026-05-05 01:23 | 33.24102 | -96.97246 | 19771 ft | 374 kts | 327° |
| 2026-05-05 01:24 | 33.26379 | -96.98725 | 19764 ft | 373 kts | 327° |
| 2026-05-05 01:24 | 33.28686 | -97.00223 | 19761 ft | 375 kts | 327° |
| 2026-05-05 01:24 | 33.30962 | -97.01702 | 19762 ft | 373 kts | 326° |
| 2026-05-05 01:24 | 33.33241 | -97.03184 | 19761 ft | 374 kts | 327° |
| 2026-05-05 01:25 | 33.35520 | -97.04665 | 19748 ft | 373 kts | 326° |
| 2026-05-05 01:25 | 33.37777 | -97.06131 | 19751 ft | 371 kts | 326° |
| 2026-05-05 01:25 | 33.40088 | -97.07637 | 19751 ft | 374 kts | 327° |
| 2026-05-05 01:25 | 33.42404 | -97.09041 | 19748 ft | 374 kts | 330° |
| 2026-05-05 01:26 | 33.44862 | -97.10097 | 19748 ft | 382 kts | 340° |
| 2026-05-05 01:26 | 33.47520 | -97.10514 | 19752 ft | 392 kts | 352° |
| 2026-05-05 01:26 | 33.50284 | -97.10413 | 19747 ft | 398 kts | 357° |
| 2026-05-05 01:26 | 33.53046 | -97.10116 | 19740 ft | 396 kts | 359° |
| 2026-05-05 01:27 | 33.55778 | -97.09747 | 19740 ft | 399 kts | 0° |
| 2026-05-05 01:27 | 33.58522 | -97.09354 | 19747 ft | 397 kts | 0° |
| 2026-05-05 01:27 | 33.61301 | -97.08958 | 19748 ft | 398 kts | 360° |
| 2026-05-05 01:27 | 33.64046 | -97.08577 | 19739 ft | 399 kts | 0° |
| 2026-05-05 01:28 | 33.66817 | -97.08200 | 19736 ft | 397 kts | 360° |
| 2026-05-05 01:28 | 33.69541 | -97.07838 | 19743 ft | 398 kts | 359° |
| 2026-05-05 01:28 | 33.72298 | -97.07478 | 19741 ft | 396 kts | 359° |
| 2026-05-05 01:28 | 33.75030 | -97.07125 | 19754 ft | 399 kts | 359° |
| 2026-05-05 01:29 | 33.77821 | -97.06770 | 19743 ft | 399 kts | 360° |
| 2026-05-05 01:29 | 33.80551 | -97.06421 | 19741 ft | 397 kts | 360° |
| 2026-05-05 01:29 | 33.83340 | -97.06065 | 19739 ft | 400 kts | 360° |
| 2026-05-05 01:29 | 33.86096 | -97.05714 | 19729 ft | 398 kts | 359° |
| 2026-05-05 01:30 | 33.88859 | -97.05361 | 19730 ft | 399 kts | 360° |
| 2026-05-05 01:30 | 33.91615 | -97.05011 | 19726 ft | 399 kts | 360° |
| 2026-05-05 01:30 | 33.94362 | -97.04661 | 19728 ft | 398 kts | 360° |
| 2026-05-05 01:30 | 33.97129 | -97.04307 | 19738 ft | 396 kts | 359° |
| 2026-05-05 01:31 | 33.99873 | -97.03956 | 19729 ft | 397 kts | 360° |
| 2026-05-05 01:31 | 34.02639 | -97.03602 | 19727 ft | 396 kts | 359° |
| 2026-05-05 01:31 | 34.05362 | -97.03253 | 19731 ft | 397 kts | 360° |
| 2026-05-05 01:31 | 34.08125 | -97.02901 | 19729 ft | 398 kts | 360° |
| 2026-05-05 01:32 | 34.10893 | -97.02547 | 19721 ft | 397 kts | 360° |
| 2026-05-05 01:32 | 34.13615 | -97.02197 | 19717 ft | 396 kts | 360° |
| 2026-05-05 01:32 | 34.16385 | -97.01843 | 19713 ft | 399 kts | 360° |
| 2026-05-05 01:32 | 34.19127 | -97.01494 | 19713 ft | 397 kts | 360° |
| 2026-05-05 01:33 | 34.21875 | -97.01140 | 19716 ft | 396 kts | 360° |
| 2026-05-05 01:33 | 34.24641 | -97.00785 | 19719 ft | 397 kts | 0° |
| 2026-05-05 01:33 | 34.27380 | -97.00435 | 19715 ft | 398 kts | 360° |
| 2026-05-05 01:33 | 34.30131 | -97.00082 | 19714 ft | 396 kts | 360° |
| 2026-05-05 01:34 | 34.32874 | -96.99727 | 19712 ft | 392 kts | 360° |
| 2026-05-05 01:34 | 34.35512 | -96.99470 | 19710 ft | 370 kts | 355° |
| 2026-05-05 01:34 | 34.38002 | -96.99620 | 19712 ft | 352 kts | 345° |
| 2026-05-05 01:34 | 34.40378 | -97.00394 | 19707 ft | 351 kts | 334° |
| 2026-05-05 01:35 | 34.42592 | -97.01577 | 19705 ft | 348 kts | 329° |
| 2026-05-05 01:35 | 34.44752 | -97.02911 | 19707 ft | 348 kts | 328° |
| 2026-05-05 01:35 | 34.46886 | -97.04295 | 19700 ft | 346 kts | 327° |
| 2026-05-05 01:35 | 34.48988 | -97.05672 | 19701 ft | 348 kts | 327° |
| 2026-05-05 01:36 | 34.51135 | -97.07072 | 19702 ft | 348 kts | 327° |
| 2026-05-05 01:36 | 34.53248 | -97.08443 | 19702 ft | 346 kts | 327° |
| 2026-05-05 01:36 | 34.55396 | -97.09825 | 19705 ft | 348 kts | 328° |
| 2026-05-05 01:36 | 34.57526 | -97.11187 | 19695 ft | 347 kts | 328° |
| 2026-05-05 01:37 | 34.59669 | -97.12553 | 19707 ft | 347 kts | 328° |
| 2026-05-05 01:37 | 34.61824 | -97.13934 | 19715 ft | 348 kts | 327° |
| 2026-05-05 01:37 | 34.63958 | -97.15305 | 19724 ft | 352 kts | 328° |
| 2026-05-05 01:37 | 34.66189 | -97.16750 | 19565 ft | 381 kts | 328° |
| 2026-05-05 01:38 | 34.68637 | -97.18341 | 19132 ft | 406 kts | 328° |
| 2026-05-05 01:38 | 34.71127 | -97.19948 | 18512 ft | 404 kts | 329° |
| 2026-05-05 01:38 | 34.73529 | -97.21482 | 17907 ft | 383 kts | 329° |
| 2026-05-05 01:38 | 34.75845 | -97.22955 | 17341 ft | 362 kts | 329° |
| 2026-05-05 01:39 | 34.78006 | -97.24331 | 17039 ft | 346 kts | 328° |
| 2026-05-05 01:39 | 34.80081 | -97.25736 | 16766 ft | 332 kts | 326° |
| 2026-05-05 01:39 | 34.82022 | -97.27176 | 16340 ft | 324 kts | 324° |
| 2026-05-05 01:39 | 34.83897 | -97.28625 | 15832 ft | 319 kts | 323° |
| 2026-05-05 01:40 | 34.85744 | -97.30057 | 15440 ft | 312 kts | 323° |
| 2026-05-05 01:40 | 34.87547 | -97.31435 | 15231 ft | 299 kts | 323° |
| 2026-05-05 01:40 | 34.89287 | -97.32748 | 15062 ft | 286 kts | 323° |
| 2026-05-05 01:40 | 34.90948 | -97.34003 | 14794 ft | 279 kts | 322° |
| 2026-05-05 01:41 | 34.92590 | -97.35256 | 14343 ft | 278 kts | 322° |
| 2026-05-05 01:41 | 34.94217 | -97.36501 | 13951 ft | 275 kts | 321° |
| 2026-05-05 01:41 | 34.95822 | -97.37728 | 13580 ft | 271 kts | 321° |
| 2026-05-05 01:41 | 34.97412 | -97.38940 | 13194 ft | 268 kts | 321° |
| 2026-05-05 01:42 | 34.98998 | -97.40155 | 12826 ft | 278 kts | 321° |
| 2026-05-05 01:42 | 35.00682 | -97.41452 | 12430 ft | 289 kts | 321° |
| 2026-05-05 01:42 | 35.02377 | -97.42744 | 12043 ft | 286 kts | 321° |
| 2026-05-05 01:42 | 35.04042 | -97.44004 | 11651 ft | 282 kts | 321° |
| 2026-05-05 01:43 | 35.05700 | -97.45261 | 11255 ft | 278 kts | 321° |
| 2026-05-05 01:43 | 35.07370 | -97.46412 | 10883 ft | 278 kts | 328° |
| 2026-05-05 01:43 | 35.09253 | -97.47029 | 10507 ft | 286 kts | 347° |
| 2026-05-05 01:43 | 35.11256 | -97.47152 | 10133 ft | 287 kts | 352° |
| 2026-05-05 01:44 | 35.13227 | -97.47165 | 9907 ft | 278 kts | 352° |
| 2026-05-05 01:44 | 35.15126 | -97.47197 | 9620 ft | 273 kts | 351° |
| 2026-05-05 01:44 | 35.17045 | -97.47280 | 9223 ft | 272 kts | 349° |
| 2026-05-05 01:44 | 35.18922 | -97.47394 | 8875 ft | 270 kts | 349° |
| 2026-05-05 01:45 | 35.20789 | -97.47516 | 8532 ft | 268 kts | 349° |
| 2026-05-05 01:45 | 35.22676 | -97.47643 | 8196 ft | 278 kts | 349° |
| 2026-05-05 01:45 | 35.24651 | -97.47781 | 7822 ft | 287 kts | 350° |
| 2026-05-05 01:45 | 35.26629 | -97.47907 | 7516 ft | 283 kts | 351° |
| 2026-05-05 01:46 | 35.28544 | -97.48018 | 7421 ft | 269 kts | 350° |
| 2026-05-05 01:46 | 35.30397 | -97.48126 | 7239 ft | 261 kts | 349° |
| 2026-05-05 01:46 | 35.32197 | -97.48244 | 6898 ft | 261 kts | 350° |
| 2026-05-05 01:46 | 35.34004 | -97.48367 | 6590 ft | 260 kts | 350° |
| 2026-05-05 01:47 | 35.35823 | -97.48488 | 6287 ft | 258 kts | 350° |
| 2026-05-05 01:47 | 35.37604 | -97.48603 | 6028 ft | 255 kts | 351° |
| 2026-05-05 01:47 | 35.39376 | -97.48697 | 5972 ft | 252 kts | 352° |
| 2026-05-05 01:47 | 35.41153 | -97.48717 | 5972 ft | 257 kts | 354° |
| 2026-05-05 01:48 | 35.42910 | -97.48698 | 5977 ft | 245 kts | 354° |
| 2026-05-05 01:48 | 35.44553 | -97.48672 | 5970 ft | 226 kts | 353° |
| 2026-05-05 01:48 | 35.46070 | -97.48662 | 5907 ft | 211 kts | 352° |
| 2026-05-05 01:48 | 35.47498 | -97.48689 | 5773 ft | 203 kts | 350° |
| 2026-05-05 01:49 | 35.48961 | -97.48747 | 5657 ft | 220 kts | 351° |
| 2026-05-05 01:49 | 35.50553 | -97.48807 | 5525 ft | 233 kts | 352° |
| 2026-05-05 01:49 | 35.52176 | -97.48842 | 5392 ft | 232 kts | 353° |
| 2026-05-05 01:49 | 35.53796 | -97.48869 | 5179 ft | 233 kts | 353° |
| 2026-05-05 01:50 | 35.55418 | -97.48904 | 4954 ft | 235 kts | 354° |
| 2026-05-05 01:50 | 35.57034 | -97.49002 | 4718 ft | 229 kts | 343° |
| 2026-05-05 01:50 | 35.58369 | -97.49892 | 4488 ft | 210 kts | 302° |
| 2026-05-05 01:50 | 35.59014 | -97.51425 | 4272 ft | 200 kts | 276° |
| 2026-05-05 01:51 | 35.59192 | -97.53082 | 4042 ft | 193 kts | 260° |
| 2026-05-05 01:51 | 35.58976 | -97.54662 | 3815 ft | 185 kts | 244° |
| 2026-05-05 01:51 | 35.58449 | -97.56014 | 3743 ft | 160 kts | 228° |
| 2026-05-05 01:51 | 35.57747 | -97.56898 | 3778 ft | 136 kts | 214° |
| 2026-05-05 01:52 | 35.57024 | -97.57639 | 3787 ft | 132 kts | 217° |
| 2026-05-05 01:52 | 35.56312 | -97.58329 | 3790 ft | 133 kts | 204° |
| 2026-05-05 01:52 | 35.55429 | -97.58649 | 3788 ft | 130 kts | 191° |
| 2026-05-05 01:52 | 35.54520 | -97.58800 | 3788 ft | 131 kts | 188° |
| 2026-05-05 01:53 | 35.53598 | -97.58867 | 3747 ft | 131 kts | 185° |
| 2026-05-05 01:53 | 35.52672 | -97.58887 | 3612 ft | 141 kts | 183° |
| 2026-05-05 01:53 | 35.51665 | -97.58899 | 3406 ft | 141 kts | 182° |
| 2026-05-05 01:53 | 35.50740 | -97.58896 | 3298 ft | 124 kts | 182° |
| 2026-05-05 01:54 | 35.49879 | -97.58897 | 3046 ft | 118 kts | 182° |
| 2026-05-05 01:54 | 35.49067 | -97.58901 | 2917 ft | 118 kts | 182° |
| 2026-05-05 01:54 | 35.48227 | -97.58895 | 2765 ft | 124 kts | 182° |
| 2026-05-05 01:54 | 35.47386 | -97.58894 | 2588 ft | 120 kts | 181° |
| 2026-05-05 01:55 | 35.46543 | -97.58896 | 2445 ft | 121 kts | 182° |
| 2026-05-05 01:55 | 35.45663 | -97.58898 | 2296 ft | 125 kts | 180° |
| 2026-05-05 01:55 | 35.44773 | -97.58893 | 2108 ft | 128 kts | 181° |
| 2026-05-05 01:55 | 35.43911 | -97.58898 | 1940 ft | 116 kts | 181° |
| 2026-05-05 01:56 | 35.43143 | -97.58895 | 1804 ft | 108 kts | 180° |
| 2026-05-05 01:56 | 35.42371 | -97.58895 | 1679 ft | 110 kts | 181° |
| 2026-05-05 01:56 | 35.41609 | -97.58895 | 1530 ft | 111 kts | 179° |
| 2026-05-05 01:56 | 35.40835 | -97.58873 | 1384 ft | 114 kts | 177° |
| 2026-05-05 01:57 | 35.40042 | -97.58886 | 1285 ft | 113 kts | 181° |
| 2026-05-05 01:57 | 35.39374 | -97.58886 | 1290 ft | 66 kts | 180° |
| 2026-05-05 01:57 | 35.39085 | -97.58897 | 1293 ft | 25 kts | 188° |
| 2026-05-05 01:57 | 35.38986 | -97.58962 | 1293 ft | 0 kts | 246° |
| 2026-05-05 01:58 | 35.38988 | -97.58956 | 1293 ft | 1 kts | 243° |
| 2026-05-05 01:58 | 35.38982 | -97.58974 | 1293 ft | 9 kts | 248° |
| 2026-05-05 01:58 | 35.38973 | -97.59093 | 1291 ft | 16 kts | 270° |
| 2026-05-05 01:59 | 35.39003 | -97.59206 | 1290 ft | 17 kts | 326° |
| 2026-05-05 01:59 | 35.39126 | -97.59221 | 1290 ft | 11 kts | 5° |
| 2026-05-05 01:59 | 35.39236 | -97.59220 | 1291 ft | 19 kts | 0° |
| 2026-05-05 01:59 | 35.39366 | -97.59261 | 1293 ft | 22 kts | 294° |
| 2026-05-05 02:00 | 35.39380 | -97.59440 | 1293 ft | 16 kts | 270° |
| 2026-05-05 02:00 | 35.39380 | -97.59613 | 1293 ft | 24 kts | 269° |
| 2026-05-05 02:00 | 35.39419 | -97.59787 | 1293 ft | 10 kts | 302° |
| 2026-05-05 02:00 | 35.39472 | -97.59803 | 1293 ft | 3 kts | 5° |
| 2026-05-05 02:01 | 35.39477 | -97.59802 | 1293 ft | 0 kts | 3° |